Solidarnosc (vanuatu) — YJZC9 — position and weather

sailwx.info

Track history (hours):
 
Tides and Currents Weather Stations Pressure Air Temp Water Temp Dewpoint Dewpoint Depression Visibility Wind Speed Wind Dir Waves Ship Positions

Solidarnosc (vanuatu)

Last reported at 2015-Jan-24 11:24 UTC. Time now 2015-Jan-25 12:22 UTC.
Position N 36°05' E 024°47'.

Length 229 m; beam 32 m.

Type: Ship. MMSI: 576005000.

Date/timePositionNaut miles runAvg speedWind from/ knotsBaromVisibWave heightAir tempDewpointWater temp
2015-Jan-24 11:24N 36°05' E 024°47'1113.2
2015-Jan-24 10:33N 36°06' E 025°01'1413.7
2015-Jan-24 09:33N 36°06' E 025°18'1413.8
2015-Jan-24 08:31N 36°07' E 025°35'1313.5
2015-Jan-24 07:33N 36°07' E 025°52'1313.4
2015-Jan-24 06:34N 36°08' E 026°08'1413.4
2015-Jan-24 05:33N 36°08' E 026°25'28013.8
2015-Jan-23 09:18N 35°49' E 032°10'1715.7
2015-Jan-23 08:11N 35°49' E 032°32'1615.6
2015-Jan-23 07:10N 35°48' E 032°51'  
Track history (hours):
 
Tides and Currents Weather Stations Pressure Air Temp Water Temp Dewpoint Dewpoint Depression Visibility Wind Speed Wind Dir Waves Ship Positions

Solidarnosc (vanuatu)

Last reported at 2015-Jan-24 11:24 UTC. Time now 2015-Jan-25 12:22 UTC.
Position N 36°05' E 024°47'.

Length 229 m; beam 32 m.

Type: Ship. MMSI: 576005000.

Date/timePositionNaut miles runAvg speedWind from/ knotsBaromVisibWave heightAir tempDewpointWater temp
2015-Jan-24 11:24N 36°05' E 024°47'1113.2
2015-Jan-24 10:33N 36°06' E 025°01'1413.7
2015-Jan-24 09:33N 36°06' E 025°18'1413.8
2015-Jan-24 08:31N 36°07' E 025°35'1313.5
2015-Jan-24 07:33N 36°07' E 025°52'1313.4
2015-Jan-24 06:34N 36°08' E 026°08'1413.4
2015-Jan-24 05:33N 36°08' E 026°25'28013.8
2015-Jan-23 09:18N 35°49' E 032°10'1715.7
2015-Jan-23 08:11N 35°49' E 032°32'1615.6
2015-Jan-23 07:10N 35°48' E 032°51'  

Dump ship's entire track history